Time;durP1;ratioP1;P1;durP2;ratioP2;P2;SDS_P1;SDS_P2;PMS_P1;PMS_P2;Temp;Humidity;BMP_temperature;BMP_pressure;BME280_temperature;BME280_humidity;BME280_pressure;Samples;Min_cycle;Max_cycle;Signal;HPM_P1;HPM_P2
2023/09/12 00:01:21;;;;;;;72.43;46.33;;;19.90;99.90;;;;;;4991573;28;20077;-88
2023/09/12 00:03:47;;;;;;;56.20;38.83;;;19.90;99.90;;;;;;4990990;28;20058;-86
2023/09/12 00:06:12;;;;;;;67.80;44.35;;;20.00;99.90;;;;;;4989717;28;20028;-87
2023/09/12 00:08:37;;;;;;;75.15;45.83;;;19.90;99.90;;;;;;4989978;28;20100;-88
2023/09/12 00:11:10;;;;;;;73.10;46.00;;;19.90;99.90;;;;;;4990414;28;20475;-88
2023/09/12 00:13:37;;;;;;;76.97;47.75;;;19.90;99.90;;;;;;4992854;28;20042;-88
2023/09/12 00:16:02;;;;;;;76.47;48.17;;;19.90;99.90;;;;;;4991434;28;20030;-89
2023/09/12 00:18:28;;;;;;;79.20;49.28;;;19.90;99.90;;;;;;4988231;28;20033;-88
2023/09/12 00:20:54;;;;;;;73.70;45.38;;;19.90;99.90;;;;;;4973575;28;20080;-88
2023/09/12 00:23:21;;;;;;;82.72;48.53;;;19.80;99.90;;;;;;4990768;28;20069;-89
2023/09/12 00:25:47;;;;;;;73.00;45.90;;;19.80;99.90;;;;;;4991330;28;20026;-89
2023/09/12 00:28:12;;;;;;;83.68;46.75;;;19.80;99.90;;;;;;4985647;28;20034;-89
2023/09/12 00:30:38;;;;;;;71.22;45.83;;;19.80;99.90;;;;;;4990205;28;20502;-89
2023/09/12 00:33:03;;;;;;;75.07;46.05;;;19.70;99.90;;;;;;4990878;28;20034;-89
2023/09/12 00:35:29;;;;;;;69.43;45.33;;;19.70;99.90;;;;;;4988917;28;20033;-89
2023/09/12 00:37:54;;;;;;;73.75;46.92;;;19.60;99.90;;;;;;4975017;28;20034;-89
2023/09/12 00:40:20;;;;;;;74.50;47.90;;;19.70;99.90;;;;;;4990375;28;20770;-89
2023/09/12 00:42:45;;;;;;;82.93;48.25;;;19.70;99.90;;;;;;4985748;28;20113;-89
2023/09/12 00:45:11;;;;;;;74.55;46.05;;;19.60;99.90;;;;;;4989982;28;20031;-89
2023/09/12 00:47:37;;;;;;;71.85;41.17;;;19.60;99.90;;;;;;4986679;28;20038;-89
2023/09/12 00:50:04;;;;;;;68.97;43.85;;;19.70;99.90;;;;;;4964107;28;20026;-88
2023/09/12 00:52:33;;;;;;;74.43;46.97;;;19.70;99.90;;;;;;4991100;28;20030;-90
2023/09/12 00:54:58;;;;;;;73.65;48.60;;;19.70;99.90;;;;;;4974969;28;20118;-89
2023/09/12 00:57:25;;;;;;;79.50;46.17;;;19.80;99.90;;;;;;4987634;28;20125;-89
2023/09/12 00:59:51;;;;;;;76.45;48.17;;;19.80;99.90;;;;;;4990838;28;20037;-89
2023/09/12 01:02:18;;;;;;;76.28;45.42;;;19.80;99.90;;;;;;4972707;28;20031;-89
2023/09/12 01:04:44;;;;;;;69.85;44.60;;;19.80;99.90;;;;;;4980480;28;20026;-89
2023/09/12 01:07:10;;;;;;;70.32;45.47;;;19.80;99.90;;;;;;4989693;28;20045;-88
2023/09/12 01:09:36;;;;;;;59.50;42.80;;;19.80;99.90;;;;;;4991136;28;20121;-89
2023/09/12 01:12:02;;;;;;;65.25;44.22;;;19.80;99.90;;;;;;4976924;28;20042;-88
2023/09/12 01:14:28;;;;;;;71.03;44.88;;;19.70;99.90;;;;;;4984140;28;20155;-89
2023/09/12 01:16:54;;;;;;;69.43;44.33;;;19.70;99.90;;;;;;4987609;28;20031;-88
2023/09/12 01:19:20;;;;;;;75.85;47.42;;;19.60;99.90;;;;;;4982043;28;20023;-89
2023/09/12 01:22:10;;;;;;;78.50;47.65;;;19.60;99.90;;;;;;4983760;28;20026;-88
2023/09/12 01:24:49;;;;;;;76.78;45.30;;;19.50;99.90;;;;;;4982366;28;20027;-89
2023/09/12 01:27:33;;;;;;;73.03;45.92;;;19.50;99.90;;;;;;4986597;28;20027;-88
2023/09/12 01:30:03;;;;;;;80.25;45.20;;;19.40;99.90;;;;;;4981357;28;20122;-89
2023/09/12 01:32:29;;;;;;;79.05;45.75;;;19.30;99.90;;;;;;4981617;28;20029;-89
2023/09/12 01:34:55;;;;;;;96.47;45.22;;;19.30;99.90;;;;;;4968922;28;20117;-89
2023/09/12 01:37:20;;;;;;;81.97;46.03;;;19.30;99.90;;;;;;4980484;28;20468;-89
2023/09/12 01:39:46;;;;;;;75.70;44.53;;;19.20;99.90;;;;;;4979497;28;20037;-89
2023/09/12 01:42:15;;;;;;;74.75;46.00;;;19.20;99.90;;;;;;4988844;28;20026;-89
2023/09/12 01:44:43;;;;;;;81.90;43.58;;;19.10;99.90;;;;;;4973569;28;20494;-88
2023/09/12 01:47:11;;;;;;;91.97;39.92;;;19.10;99.90;;;;;;4981240;28;20035;-88
2023/09/12 01:49:39;;;;;;;145.88;39.13;;;19.00;99.90;;;;;;4990964;28;20027;-88
2023/09/12 01:52:05;;;;;;;407.50;37.40;;;19.00;99.90;;;;;;4989804;28;20126;-89
2023/09/12 01:54:33;;;;;;;576.40;47.95;;;18.90;99.90;;;;;;4991039;28;20159;-89
2023/09/12 01:56:59;;;;;;;119.95;31.77;;;18.90;99.90;;;;;;4987315;28;20203;-88
2023/09/12 01:59:25;;;;;;;276.52;37.05;;;18.90;99.90;;;;;;4987644;28;20255;-88
2023/09/12 02:01:51;;;;;;;122.22;31.77;;;18.80;99.90;;;;;;4988825;28;20586;-88
2023/09/12 02:04:16;;;;;;;81.85;35.85;;;18.80;99.90;;;;;;4990248;28;20033;-88
2023/09/12 02:06:42;;;;;;;142.77;30.02;;;18.80;99.90;;;;;;4985180;28;20023;-89
2023/09/12 02:09:07;;;;;;;235.63;35.38;;;18.70;99.90;;;;;;4989997;28;20046;-89
2023/09/12 02:11:33;;;;;;;224.05;33.53;;;18.70;99.90;;;;;;5000835;28;20033;-88
2023/09/12 02:13:58;;;;;;;195.90;35.78;;;18.70;99.90;;;;;;4997524;28;20038;-88
2023/09/12 02:16:24;;;;;;;177.35;34.90;;;18.70;99.90;;;;;;4996682;28;20042;-89
2023/09/12 02:18:49;;;;;;;216.75;33.33;;;18.60;99.90;;;;;;4992848;28;20525;-88
2023/09/12 02:21:18;;;;;;;150.07;30.60;;;18.60;99.90;;;;;;4977168;28;20502;-89
2023/09/12 02:23:43;;;;;;;86.93;33.70;;;18.60;99.90;;;;;;4977913;28;20033;-89
2023/09/12 02:26:09;;;;;;;107.05;35.55;;;18.60;99.90;;;;;;4975919;28;20027;-89
2023/09/12 02:28:34;;;;;;;88.47;37.88;;;18.60;99.90;;;;;;4991328;28;20037;-90
2023/09/12 02:31:00;;;;;;;87.68;37.88;;;18.60;99.90;;;;;;4984955;28;20027;-90
2023/09/12 02:33:25;;;;;;;76.38;38.72;;;18.70;99.90;;;;;;4974591;28;20494;-89
2023/09/12 02:35:51;;;;;;;88.20;40.92;;;18.70;99.90;;;;;;4982785;28;20023;-90
2023/09/12 02:38:18;;;;;;;66.05;42.75;;;18.70;99.90;;;;;;4975059;28;20470;-90
2023/09/12 02:40:43;;;;;;;67.30;42.95;;;18.80;99.90;;;;;;4987459;28;20062;-90
2023/09/12 02:43:09;;;;;;;97.05;42.35;;;18.80;99.90;;;;;;4977086;28;20068;-90
2023/09/12 02:45:34;;;;;;;71.85;43.45;;;18.80;99.90;;;;;;4989344;28;20117;-89
2023/09/12 02:48:00;;;;;;;73.53;45.30;;;18.90;99.90;;;;;;4984239;28;20039;-88
2023/09/12 02:50:25;;;;;;;68.50;41.55;;;18.90;99.90;;;;;;4964418;28;20062;-90
2023/09/12 02:52:51;;;;;;;79.10;45.83;;;18.90;99.90;;;;;;4967807;28;20031;-89
2023/09/12 02:55:16;;;;;;;72.30;42.53;;;19.00;99.90;;;;;;4973267;28;20406;-88
2023/09/12 02:57:42;;;;;;;68.60;42.20;;;19.00;99.90;;;;;;4977109;28;20034;-89
2023/09/12 03:00:09;;;;;;;67.45;42.85;;;19.00;99.90;;;;;;4991991;28;20125;-89
2023/09/12 03:02:34;;;;;;;68.35;42.65;;;19.10;99.90;;;;;;4989869;28;20026;-89
2023/09/12 03:05:01;;;;;;;70.03;42.13;;;19.10;99.90;;;;;;4987132;28;20053;-90
2023/09/12 03:07:27;;;;;;;73.45;43.10;;;19.10;99.90;;;;;;4992009;28;20490;-88
2023/09/12 03:09:52;;;;;;;68.13;43.35;;;19.20;99.90;;;;;;4992477;28;20025;-90
2023/09/12 03:12:18;;;;;;;70.18;43.25;;;19.10;99.90;;;;;;4991889;28;20058;-89
2023/09/12 03:14:43;;;;;;;68.35;42.00;;;19.20;99.90;;;;;;4983433;28;20022;-89
2023/09/12 03:17:09;;;;;;;69.95;42.55;;;19.20;99.90;;;;;;4987938;28;20042;-89
2023/09/12 03:19:34;;;;;;;67.50;42.22;;;19.20;99.90;;;;;;4967468;28;20034;-90
2023/09/12 03:22:00;;;;;;;67.63;40.72;;;19.20;99.90;;;;;;4988803;28;20034;-90
2023/09/12 03:24:25;;;;;;;71.90;42.47;;;19.20;99.90;;;;;;4992921;28;20110;-89
2023/09/12 03:26:51;;;;;;;71.75;41.17;;;19.30;99.90;;;;;;4986925;28;20037;-89
2023/09/12 03:29:17;;;;;;;64.10;39.65;;;19.20;99.90;;;;;;4974375;28;20464;-89
2023/09/12 03:31:42;;;;;;;75.43;42.72;;;19.20;99.90;;;;;;4975088;28;20018;-89
2023/09/12 03:34:08;;;;;;;87.55;44.72;;;19.20;99.90;;;;;;4984744;28;20037;-89
2023/09/12 03:36:34;;;;;;;71.25;43.60;;;19.20;99.90;;;;;;4964080;28;20395;-89
2023/09/12 03:38:59;;;;;;;75.43;45.20;;;19.20;99.90;;;;;;4973409;28;20458;-89
2023/09/12 03:41:25;;;;;;;79.90;44.85;;;19.20;99.90;;;;;;4990776;28;20041;-90
2023/09/12 03:43:55;;;;;;;79.95;45.75;;;19.20;99.90;;;;;;4990562;28;20483;-90
2023/09/12 03:46:21;;;;;;;88.10;46.42;;;19.20;99.90;;;;;;4990440;28;20438;-91
2023/09/12 03:48:46;;;;;;;87.35;47.50;;;19.20;99.90;;;;;;4975744;28;20053;-90
2023/09/12 03:51:12;;;;;;;112.07;50.13;;;19.20;99.90;;;;;;4969357;28;20479;-90
2023/09/12 03:53:38;;;;;;;90.88;47.25;;;19.20;99.90;;;;;;4973988;28;20105;-89
2023/09/12 03:56:04;;;;;;;90.53;47.97;;;19.30;99.90;;;;;;4964372;28;20033;-90
2023/09/12 03:58:29;;;;;;;82.80;45.40;;;19.20;99.90;;;;;;4987918;28;20132;-90
2023/09/12 04:00:55;;;;;;;107.88;50.60;;;19.20;99.90;;;;;;4990018;28;20486;-90
2023/09/12 04:03:20;;;;;;;116.10;49.42;;;19.20;99.90;;;;;;4991538;28;20030;-91
2023/09/12 04:05:50;;;;;;;150.70;52.08;;;19.20;99.90;;;;;;4991008;28;20585;-90
2023/09/12 04:08:16;;;;;;;119.22;49.08;;;19.20;99.90;;;;;;4988955;28;20570;-91
2023/09/12 04:10:42;;;;;;;155.02;54.33;;;19.20;99.90;;;;;;4989090;28;20053;-89
2023/09/12 04:13:07;;;;;;;226.77;58.38;;;19.20;99.90;;;;;;4989903;28;20498;-90
2023/09/12 04:15:33;;;;;;;140.55;55.63;;;19.20;99.90;;;;;;4992531;28;20061;-90
2023/09/12 04:17:59;;;;;;;153.07;53.42;;;19.20;99.90;;;;;;4978504;28;20081;-91
2023/09/12 04:20:25;;;;;;;474.08;66.72;;;19.30;99.90;;;;;;4963176;28;20060;-90
2023/09/12 04:22:51;;;;;;;164.32;56.42;;;19.20;99.90;;;;;;4988426;28;20030;-90
2023/09/12 04:25:19;;;;;;;320.55;64.30;;;19.30;99.90;;;;;;4975310;28;20026;-91
2023/09/12 04:27:45;;;;;;;217.05;61.10;;;19.30;99.90;;;;;;4991508;28;20046;-91
2023/09/12 04:30:11;;;;;;;252.73;60.60;;;19.30;99.90;;;;;;4988671;28;20474;-88
2023/09/12 04:32:37;;;;;;;200.57;61.28;;;19.30;99.90;;;;;;4989014;28;20031;-90
2023/09/12 04:35:03;;;;;;;334.20;65.45;;;19.40;99.90;;;;;;4973192;28;20478;-90
2023/09/12 04:37:28;;;;;;;218.80;57.45;;;19.40;99.90;;;;;;4975804;28;20168;-89
2023/09/12 04:39:54;;;;;;;302.60;65.10;;;19.40;99.90;;;;;;4977144;28;20121;-89
2023/09/12 04:42:20;;;;;;;258.48;63.03;;;19.40;99.90;;;;;;4987702;28;20033;-89
2023/09/12 04:44:46;;;;;;;228.77;62.42;;;19.40;99.90;;;;;;4990788;28;20414;-89
2023/09/12 04:47:12;;;;;;;617.88;76.93;;;19.40;99.90;;;;;;4992071;28;20026;-89
2023/09/12 04:49:38;;;;;;;386.40;66.63;;;19.30;99.90;;;;;;4992240;28;20505;-90
2023/09/12 04:52:04;;;;;;;247.68;62.92;;;19.40;99.90;;;;;;4992300;28;20025;-89
2023/09/12 04:54:29;;;;;;;182.70;61.80;;;19.30;99.90;;;;;;4986113;28;20414;-89
2023/09/12 04:56:55;;;;;;;245.85;62.22;;;19.30;99.90;;;;;;4976255;28;20026;-88
2023/09/12 04:59:20;;;;;;;371.38;64.90;;;19.30;99.90;;;;;;4991629;28;20054;-89
2023/09/12 05:01:46;;;;;;;212.00;61.55;;;19.30;99.90;;;;;;4990328;28;20112;-90
2023/09/12 05:04:12;;;;;;;249.75;63.65;;;19.30;99.90;;;;;;4991104;28;20073;-89
2023/09/12 05:06:37;;;;;;;124.80;51.55;;;19.30;99.90;;;;;;4989228;28;20038;-89
2023/09/12 05:09:04;;;;;;;219.07;66.95;;;19.30;99.90;;;;;;4990863;28;20517;-90
2023/09/12 05:11:30;;;;;;;148.57;63.67;;;19.30;99.90;;;;;;4990720;28;20030;-89
2023/09/12 05:13:55;;;;;;;134.70;60.38;;;19.30;99.90;;;;;;4989576;28;20044;-90
2023/09/12 05:16:21;;;;;;;123.05;57.70;;;19.20;99.90;;;;;;4993041;28;20041;-89
2023/09/12 05:18:49;;;;;;;127.95;57.88;;;19.20;99.90;;;;;;4994930;28;20026;-91
2023/09/12 05:21:14;;;;;;;144.52;65.25;;;19.20;99.90;;;;;;4995154;28;20030;-90
2023/09/12 05:23:40;;;;;;;134.70;60.92;;;19.20;99.90;;;;;;4987205;28;20052;-90
2023/09/12 05:26:06;;;;;;;141.25;62.30;;;19.20;99.90;;;;;;5015261;28;20026;-91
2023/09/12 05:28:31;;;;;;;142.13;62.75;;;19.30;99.90;;;;;;5000718;28;20482;-90
2023/09/12 05:30:57;;;;;;;141.55;64.25;;;19.20;99.90;;;;;;4993647;28;20027;-90
2023/09/12 05:33:23;;;;;;;135.55;61.55;;;19.20;99.90;;;;;;4973944;28;20092;-88
2023/09/12 05:35:48;;;;;;;118.65;60.35;;;19.20;99.90;;;;;;4977022;28;20023;-89
2023/09/12 05:38:14;;;;;;;118.90;57.40;;;19.20;99.90;;;;;;4976645;28;20465;-89
2023/09/12 05:40:39;;;;;;;111.80;57.63;;;19.20;99.90;;;;;;4978667;28;20026;-89
2023/09/12 05:43:05;;;;;;;115.18;58.67;;;19.10;99.90;;;;;;4979394;28;20026;-90
2023/09/12 05:45:32;;;;;;;118.38;58.42;;;19.10;99.90;;;;;;4978512;28;20019;-89
2023/09/12 05:47:58;;;;;;;125.78;61.97;;;19.10;99.90;;;;;;4979004;28;20494;-89
2023/09/12 05:50:23;;;;;;;113.88;57.25;;;19.10;99.90;;;;;;4995500;28;20045;-89
2023/09/12 05:52:49;;;;;;;120.72;59.83;;;19.00;99.90;;;;;;4993620;28;20402;-89
2023/09/12 05:55:15;;;;;;;108.68;56.38;;;19.00;99.90;;;;;;4978178;28;20169;-89
2023/09/12 05:57:40;;;;;;;111.43;56.95;;;19.00;99.90;;;;;;4996287;28;20475;-88
2023/09/12 06:00:11;;;;;;;99.03;53.47;;;19.00;99.90;;;;;;4995705;28;20038;-89
2023/09/12 06:02:37;;;;;;;102.65;56.22;;;19.00;99.90;;;;;;4994690;28;20027;-90
2023/09/12 06:05:03;;;;;;;96.63;52.85;;;19.00;99.90;;;;;;4993990;28;20050;-90
2023/09/12 06:07:29;;;;;;;92.68;50.22;;;19.10;99.90;;;;;;4996599;28;20128;-93
2023/09/12 06:09:54;;;;;;;87.30;47.42;;;19.10;99.90;;;;;;4994920;28;20054;-94
2023/09/12 06:12:20;;;;;;;89.90;49.22;;;19.10;99.90;;;;;;4977542;28;20054;-93
2023/09/12 06:14:45;;;;;;;88.47;47.53;;;19.10;99.90;;;;;;4993835;28;20063;-93
2023/09/12 06:17:14;;;;;;;89.97;48.72;;;19.10;99.90;;;;;;4977580;28;20033;-94
2023/09/12 06:19:39;;;;;;;92.78;49.10;;;19.10;99.90;;;;;;4995302;28;20041;-94
2023/09/12 06:22:05;;;;;;;98.13;49.30;;;19.20;99.90;;;;;;4994724;28;20019;-94
2023/09/12 06:24:30;;;;;;;92.18;48.58;;;19.10;99.90;;;;;;4994830;28;20030;-93
2023/09/12 06:26:57;;;;;;;97.07;51.40;;;19.10;99.90;;;;;;4992195;28;20061;-94
2023/09/12 06:29:22;;;;;;;85.95;48.03;;;19.20;99.90;;;;;;4992554;28;20039;-94
2023/09/12 06:31:48;;;;;;;85.50;46.90;;;19.10;99.90;;;;;;4992623;28;20537;-94
2023/09/12 06:34:13;;;;;;;82.90;46.83;;;19.20;99.90;;;;;;4995273;28;20563;-94
2023/09/12 06:36:41;;;;;;;78.80;46.60;;;19.10;99.90;;;;;;4994291;28;20027;-95
2023/09/12 06:39:06;;;;;;;89.72;47.13;;;19.20;99.90;;;;;;4994659;28;20037;-95
2023/09/12 06:41:32;;;;;;;87.75;46.50;;;19.20;99.90;;;;;;4991102;28;20031;-95
2023/09/12 06:43:58;;;;;;;80.63;46.00;;;19.20;99.90;;;;;;4978638;28;20026;-95
2023/09/12 06:46:24;;;;;;;80.72;46.05;;;19.20;99.90;;;;;;4981307;28;20027;-95
2023/09/12 06:48:50;;;;;;;96.22;47.50;;;19.20;99.90;;;;;;4995994;28;20034;-94
2023/09/12 06:51:16;;;;;;;84.43;46.70;;;19.30;99.90;;;;;;4993143;28;20454;-93
2023/09/12 06:53:42;;;;;;;81.43;44.67;;;19.30;99.90;;;;;;4999518;28;20041;-94
2023/09/12 06:56:07;;;;;;;74.57;43.28;;;19.30;99.90;;;;;;4996424;28;20448;-94
2023/09/12 06:58:33;;;;;;;78.13;44.50;;;19.40;99.90;;;;;;4995264;28;20041;-94
2023/09/12 07:01:06;;;;;;;77.35;45.40;;;19.40;99.90;;;;;;4980275;28;20088;-94
2023/09/12 07:03:33;;;;;;;81.38;44.80;;;19.50;99.90;;;;;;4992416;28;20037;-94
2023/09/12 07:05:59;;;;;;;83.88;46.10;;;19.50;99.90;;;;;;4996918;28;20057;-94
2023/09/12 07:08:25;;;;;;;83.22;46.10;;;19.60;99.90;;;;;;4963690;28;20034;-94
2023/09/12 07:10:50;;;;;;;89.88;49.90;;;19.60;99.90;;;;;;4977726;28;20102;-93
2023/09/12 07:13:16;;;;;;;75.85;45.05;;;19.70;99.90;;;;;;4994744;28;20104;-94
2023/09/12 07:15:41;;;;;;;82.95;44.17;;;19.70;99.90;;;;;;4995177;28;20146;-94
2023/09/12 07:18:07;;;;;;;78.30;43.47;;;19.80;99.90;;;;;;4979273;28;20027;-94
2023/09/12 07:20:34;;;;;;;87.75;46.28;;;19.80;99.90;;;;;;4995733;28;20113;-93
2023/09/12 07:22:59;;;;;;;84.97;47.45;;;19.80;99.90;;;;;;4998037;28;20487;-94
2023/09/12 07:25:25;;;;;;;79.45;45.30;;;19.90;99.90;;;;;;4977023;28;20040;-93
2023/09/12 07:27:51;;;;;;;74.40;44.05;;;19.90;99.90;;;;;;4979952;28;20557;-93
2023/09/12 07:30:17;;;;;;;75.25;43.60;;;20.00;99.90;;;;;;4992270;28;20027;-93
2023/09/12 07:32:42;;;;;;;73.43;42.88;;;20.00;99.90;;;;;;4977968;28;20137;-91
2023/09/12 07:35:08;;;;;;;78.22;46.22;;;20.00;99.90;;;;;;4979129;28;20014;-91
2023/09/12 07:37:33;;;;;;;78.43;46.17;;;20.10;99.90;;;;;;4992208;28;20022;-91
2023/09/12 07:39:59;;;;;;;81.78;46.45;;;20.10;99.90;;;;;;4993244;28;20037;-90
2023/09/12 07:42:25;;;;;;;72.95;43.70;;;20.20;99.90;;;;;;4989640;28;20042;-90
2023/09/12 07:44:50;;;;;;;73.72;45.63;;;20.30;99.90;;;;;;4966399;28;20029;-90
2023/09/12 07:47:16;;;;;;;77.90;47.85;;;20.40;99.90;;;;;;4976269;28;20031;-90
2023/09/12 07:49:42;;;;;;;73.68;45.50;;;20.30;99.90;;;;;;4993227;28;20041;-93
2023/09/12 07:52:07;;;;;;;73.00;43.83;;;20.40;99.90;;;;;;4990347;28;20034;-92
2023/09/12 07:54:33;;;;;;;72.50;42.17;;;20.40;99.90;;;;;;4962724;28;20077;-93
2023/09/12 07:56:59;;;;;;;64.70;40.72;;;20.40;99.90;;;;;;4990606;28;20027;-93
2023/09/12 07:59:25;;;;;;;59.22;39.75;;;20.40;99.90;;;;;;4992929;28;20026;-90
2023/09/12 08:01:51;;;;;;;53.25;35.05;;;20.50;99.90;;;;;;4992850;28;20019;-93
2023/09/12 08:04:17;;;;;;;54.10;34.95;;;20.50;99.90;;;;;;4992386;28;20483;-90
2023/09/12 08:06:42;;;;;;;54.85;33.88;;;20.50;99.90;;;;;;4992583;28;20026;-91
2023/09/12 08:09:09;;;;;;;53.50;34.50;;;20.50;99.90;;;;;;4976264;28;20556;-90
2023/09/12 08:11:35;;;;;;;52.22;36.05;;;20.60;99.90;;;;;;4992573;28;20469;-91
2023/09/12 08:14:01;;;;;;;58.10;37.63;;;20.60;99.90;;;;;;4975696;28;20121;-92
2023/09/12 08:16:31;;;;;;;53.70;34.03;;;20.70;99.90;;;;;;4983587;28;20057;-92
2023/09/12 08:18:58;;;;;;;47.63;32.70;;;20.70;99.90;;;;;;4993258;28;20449;-92
2023/09/12 08:21:23;;;;;;;45.45;29.95;;;20.80;99.90;;;;;;4992439;28;20117;-92
2023/09/12 08:23:49;;;;;;;45.92;31.67;;;20.80;99.90;;;;;;4989282;28;20118;-92
2023/09/12 08:26:14;;;;;;;48.67;32.38;;;20.80;99.90;;;;;;4967783;28;20045;-91
2023/09/12 08:28:40;;;;;;;46.50;31.83;;;20.90;99.90;;;;;;4972530;28;20133;-91
2023/09/12 08:31:06;;;;;;;52.80;32.25;;;20.80;99.90;;;;;;4987155;28;20050;-92
2023/09/12 08:33:31;;;;;;;47.22;32.15;;;20.90;99.90;;;;;;4981601;28;20526;-91
2023/09/12 08:35:57;;;;;;;52.83;34.53;;;20.90;99.90;;;;;;4993395;28;20109;-91
2023/09/12 08:38:22;;;;;;;45.85;32.03;;;21.00;99.90;;;;;;5003483;28;20034;-91
2023/09/12 08:40:50;;;;;;;44.30;31.70;;;21.20;99.90;;;;;;4987244;28;20045;-91
2023/09/12 08:43:15;;;;;;;47.13;31.23;;;21.20;99.90;;;;;;4990642;28;20026;-91
2023/09/12 08:45:43;;;;;;;43.30;29.52;;;21.30;99.90;;;;;;4990020;28;20048;-91
2023/09/12 08:48:10;;;;;;;46.25;32.08;;;21.40;99.90;;;;;;4991924;28;20490;-91
2023/09/12 08:50:36;;;;;;;40.83;26.73;;;21.50;99.90;;;;;;4971959;28;20046;-90
2023/09/12 08:53:03;;;;;;;46.15;31.05;;;21.50;99.90;;;;;;4990362;28;20030;-92
2023/09/12 08:55:29;;;;;;;43.90;29.73;;;21.60;99.90;;;;;;4975992;28;20026;-92
2023/09/12 08:57:55;;;;;;;43.47;28.40;;;21.70;99.90;;;;;;4986195;28;20119;-91
2023/09/12 09:00:22;;;;;;;37.88;27.48;;;21.70;99.90;;;;;;4988767;28;20025;-93
2023/09/12 09:02:48;;;;;;;38.97;26.17;;;21.80;99.90;;;;;;4991664;28;20034;-93
2023/09/12 09:05:16;;;;;;;40.83;25.38;;;21.80;99.90;;;;;;4992135;28;20019;-92
2023/09/12 09:07:42;;;;;;;28.77;19.70;;;21.70;99.90;;;;;;4991547;28;20026;-92
2023/09/12 09:10:15;;;;;;;35.13;23.30;;;21.80;99.90;;;;;;4991721;28;20034;-91
2023/09/12 09:12:42;;;;;;;30.73;21.05;;;21.90;99.90;;;;;;4991696;28;20043;-92
2023/09/12 09:15:28;;;;;;;30.45;20.60;;;21.90;99.90;;;;;;4975055;28;20038;-92
2023/09/12 09:17:55;;;;;;;32.33;21.25;;;22.10;99.90;;;;;;4992027;28;20491;-91
2023/09/12 09:20:34;;;;;;;39.20;25.88;;;22.10;99.90;;;;;;4991688;28;20372;-91
2023/09/12 09:23:10;;;;;;;34.40;23.63;;;22.20;99.90;;;;;;4991803;28;20030;-93
2023/09/12 09:25:41;;;;;;;39.53;24.70;;;22.20;99.90;;;;;;4992393;28;20068;-92
2023/09/12 09:28:17;;;;;;;35.28;24.80;;;22.20;99.90;;;;;;4976251;28;20046;-93
2023/09/12 09:30:45;;;;;;;43.25;26.85;;;22.30;99.90;;;;;;4988585;28;20022;-93
2023/09/12 09:33:11;;;;;;;40.00;26.67;;;22.30;99.90;;;;;;4990751;28;20026;-92
2023/09/12 09:35:38;;;;;;;36.83;25.80;;;22.30;99.90;;;;;;4975664;28;20034;-91
2023/09/12 09:38:06;;;;;;;45.45;30.00;;;22.40;99.90;;;;;;4975612;28;20022;-92
2023/09/12 09:40:33;;;;;;;38.58;25.60;;;22.40;99.90;;;;;;4991941;28;20386;-91
2023/09/12 09:43:00;;;;;;;43.03;30.13;;;22.50;99.90;;;;;;4989347;28;20510;-91
2023/09/12 09:45:26;;;;;;;44.60;30.70;;;22.70;99.90;;;;;;4987269;28;20022;-91
2023/09/12 09:47:52;;;;;;;44.45;30.80;;;22.70;99.90;;;;;;4975204;28;20034;-91
2023/09/12 09:50:17;;;;;;;45.72;31.45;;;22.80;99.90;;;;;;4971926;28;20042;-92
2023/09/12 09:52:44;;;;;;;44.42;30.52;;;23.00;99.90;;;;;;4987361;28;20035;-91
2023/09/12 09:55:15;;;;;;;43.63;30.70;;;23.10;99.90;;;;;;4991672;28;20033;-91
2023/09/12 09:57:41;;;;;;;46.22;30.17;;;23.20;99.90;;;;;;4991752;28;20025;-91
2023/09/12 10:00:11;;;;;;;43.42;29.33;;;23.30;99.90;;;;;;4990809;28;20125;-90
2023/09/12 10:02:38;;;;;;;43.75;31.77;;;23.40;99.90;;;;;;4979194;28;20110;-90
2023/09/12 10:05:05;;;;;;;46.17;32.83;;;23.40;99.90;;;;;;4988020;28;20038;-90
2023/09/12 10:07:38;;;;;;;47.67;32.72;;;23.40;99.90;;;;;;4995610;28;20023;-90
2023/09/12 10:10:04;;;;;;;36.42;25.67;;;23.40;99.90;;;;;;4982637;28;20104;-91
2023/09/12 10:12:45;;;;;;;37.00;25.30;;;23.50;99.90;;;;;;4991732;28;20051;-90
2023/09/12 10:15:12;;;;;;;34.08;23.90;;;23.50;99.90;;;;;;4974745;28;20122;-90
2023/09/12 10:17:41;;;;;;;32.88;23.85;;;23.50;99.90;;;;;;4986862;28;20038;-90
2023/09/12 10:20:15;;;;;;;32.25;22.95;;;23.60;99.90;;;;;;4991536;28;20038;-90
2023/09/12 10:23:00;;;;;;;35.88;24.70;;;23.70;99.90;;;;;;4992030;28;20118;-90
2023/09/12 10:25:28;;;;;;;27.85;20.90;;;23.80;99.90;;;;;;4987858;28;20024;-90
2023/09/12 10:27:54;;;;;;;27.40;21.15;;;23.90;99.90;;;;;;4987469;28;20446;-90
2023/09/12 10:30:22;;;;;;;28.85;20.02;;;24.10;99.90;;;;;;4991564;28;20022;-91
2023/09/12 10:32:48;;;;;;;24.00;17.52;;;24.30;99.90;;;;;;4992013;28;20096;-90
2023/09/12 10:35:14;;;;;;;23.05;18.00;;;24.60;99.90;;;;;;4975032;28;20034;-90
2023/09/12 10:37:43;;;;;;;21.27;16.33;;;24.70;99.90;;;;;;4991306;28;20022;-90
2023/09/12 10:40:10;;;;;;;12.88;10.05;;;24.90;99.90;;;;;;4991302;28;20019;-91
2023/09/12 10:42:36;;;;;;;19.58;14.85;;;25.10;99.90;;;;;;4977417;28;20035;-90
2023/09/12 10:45:07;;;;;;;19.40;14.57;;;25.10;99.90;;;;;;4986380;28;20024;-90
2023/09/12 10:47:32;;;;;;;18.63;14.65;;;25.40;99.90;;;;;;4984716;28;20038;-90
2023/09/12 10:49:58;;;;;;;19.88;15.10;;;25.60;99.90;;;;;;4972822;28;20038;-90
2023/09/12 10:52:28;;;;;;;21.38;17.02;;;25.60;99.90;;;;;;4990226;28;20507;-90
2023/09/12 10:54:54;;;;;;;24.58;19.70;;;25.80;99.90;;;;;;4973210;28;20048;-89
2023/09/12 10:57:20;;;;;;;26.60;19.48;;;25.90;99.90;;;;;;4989036;28;20027;-90
2023/09/12 11:00:10;;;;;;;26.30;19.10;;;25.80;99.90;;;;;;4978437;28;20390;-89
2023/09/12 11:02:43;;;;;;;25.13;17.77;;;25.90;99.90;;;;;;4987618;28;20065;-89
2023/09/12 11:05:27;;;;;;;24.80;17.85;;;25.80;99.90;;;;;;4987087;28;20538;-90
2023/09/12 11:07:57;;;;;;;22.10;16.98;;;25.90;99.90;;;;;;4989323;28;20185;-88
2023/09/12 11:10:24;;;;;;;24.95;17.65;;;25.90;99.90;;;;;;4989869;28;20034;-89
2023/09/12 11:12:56;;;;;;;25.92;19.15;;;26.00;99.90;;;;;;4970145;28;20062;-88
2023/09/12 11:15:28;;;;;;;25.02;18.95;;;26.00;99.90;;;;;;4986429;28;20368;-88
2023/09/12 11:18:01;;;;;;;26.05;18.52;;;26.00;99.90;;;;;;4988424;28;20034;-88
2023/09/12 11:20:49;;;;;;;25.85;19.20;;;25.90;99.90;;;;;;4981756;28;20027;-89
2023/09/12 11:23:15;;;;;;;19.67;14.45;;;25.90;99.90;;;;;;4988839;28;20475;-88
2023/09/12 11:25:41;;;;;;;19.75;15.43;;;25.90;99.90;;;;;;4989712;28;20047;-89
2023/09/12 11:28:06;;;;;;;21.15;17.23;;;26.00;99.90;;;;;;4971473;28;20187;-89
2023/09/12 11:30:33;;;;;;;21.25;14.88;;;26.20;99.90;;;;;;4989758;28;20571;-89
2023/09/12 11:33:02;;;;;;;17.63;14.18;;;26.30;99.90;;;;;;4959340;28;20039;-90
2023/09/12 11:35:28;;;;;;;16.13;13.55;;;26.40;99.90;;;;;;4984376;28;20034;-89
2023/09/12 11:37:59;;;;;;;16.52;11.68;;;26.70;99.90;;;;;;4984968;28;20026;-90
2023/09/12 11:40:34;;;;;;;13.85;10.70;;;26.80;99.90;;;;;;4983226;28;20034;-89
2023/09/12 11:43:01;;;;;;;14.40;11.02;;;26.90;99.90;;;;;;4986922;28;20444;-88
2023/09/12 11:45:27;;;;;;;15.70;9.25;;;27.00;99.90;;;;;;4972054;28;20034;-89
2023/09/12 11:47:54;;;;;;;16.58;12.38;;;27.00;99.90;;;;;;4987518;28;20081;-90
2023/09/12 11:50:30;;;;;;;25.48;18.58;;;26.90;99.90;;;;;;4991061;28;20113;-88
2023/09/12 11:53:11;;;;;;;26.77;20.42;;;26.70;99.90;;;;;;4982533;28;20031;-88
2023/09/12 11:55:51;;;;;;;24.50;18.00;;;26.40;99.90;;;;;;4984575;28;20474;-88
2023/09/12 11:58:17;;;;;;;22.13;18.38;;;26.20;99.90;;;;;;4968050;28;20041;-89
2023/09/12 12:00:55;;;;;;;24.23;19.85;;;26.00;99.90;;;;;;4982790;28;20019;-89
2023/09/12 12:03:22;;;;;;;31.23;19.88;;;25.90;99.90;;;;;;4983004;28;20066;-88
2023/09/12 12:05:48;;;;;;;27.70;17.52;;;25.80;99.90;;;;;;4982491;28;20022;-89
2023/09/12 12:08:16;;;;;;;25.25;18.13;;;25.80;99.90;;;;;;4983612;28;20041;-89
2023/09/12 12:10:43;;;;;;;21.77;17.80;;;25.90;99.90;;;;;;4967843;28;20043;-88
2023/09/12 12:13:16;;;;;;;22.98;17.40;;;26.00;99.90;;;;;;4984173;28;20135;-88
2023/09/12 12:15:42;;;;;;;20.70;15.05;;;26.00;99.90;;;;;;4967815;28;20117;-88
2023/09/12 12:18:07;;;;;;;20.40;14.82;;;26.20;99.90;;;;;;4970492;28;20054;-88
2023/09/12 12:20:33;;;;;;;18.77;14.32;;;26.20;99.90;;;;;;4969828;28;20026;-88
2023/09/12 12:22:58;;;;;;;20.92;15.88;;;26.30;99.90;;;;;;4988969;28;20403;-88
2023/09/12 12:25:24;;;;;;;22.10;14.45;;;26.40;99.90;;;;;;4983880;28;20118;-88